Time;durP1;ratioP1;P1;durP2;ratioP2;P2;SDS_P1;SDS_P2;PMS_P1;PMS_P2;Temp;Humidity;BMP_temperature;BMP_pressure;BME280_temperature;BME280_humidity;BME280_pressure;Samples;Min_cycle;Max_cycle;Signal;HPM_P1;HPM_P2
2023/03/30 00:02:09;;;;;;;10.23;7.15;;;12.10;99.90;;;;;;4935274;29;20044;-70
2023/03/30 00:04:36;;;;;;;12.25;6.10;;;12.10;99.90;;;;;;4914867;29;20040;-70
2023/03/30 00:07:01;;;;;;;12.98;6.18;;;12.00;99.90;;;;;;4914977;29;20036;-70
2023/03/30 00:09:30;;;;;;;15.32;6.28;;;12.00;99.90;;;;;;4915863;29;20032;-70
2023/03/30 00:11:55;;;;;;;10.48;6.07;;;12.10;99.90;;;;;;4916558;29;20048;-70
2023/03/30 00:14:30;;;;;;;10.13;6.05;;;12.10;99.90;;;;;;4915774;29;20108;-70
2023/03/30 00:16:56;;;;;;;10.40;5.90;;;12.10;99.90;;;;;;4915791;29;20032;-72
2023/03/30 00:19:22;;;;;;;11.48;5.90;;;12.10;99.90;;;;;;4916041;29;20505;-72
2023/03/30 00:21:48;;;;;;;12.02;7.10;;;12.10;99.90;;;;;;4915972;29;20060;-72
2023/03/30 00:24:14;;;;;;;14.32;6.72;;;12.10;99.90;;;;;;4914975;29;20055;-72
2023/03/30 00:26:40;;;;;;;11.60;6.30;;;11.90;99.90;;;;;;4915090;29;20029;-71
2023/03/30 00:29:06;;;;;;;12.73;7.05;;;12.00;99.90;;;;;;4915705;29;20084;-71
2023/03/30 00:31:32;;;;;;;11.45;5.57;;;11.90;99.90;;;;;;4915552;29;20074;-71
2023/03/30 00:33:57;;;;;;;10.85;5.50;;;12.00;99.90;;;;;;4915591;29;20047;-71
2023/03/30 00:36:23;;;;;;;10.93;5.63;;;11.90;99.90;;;;;;4914411;29;20034;-71
2023/03/30 00:38:49;;;;;;;10.85;6.00;;;11.90;99.90;;;;;;4916213;29;20032;-72
2023/03/30 00:41:15;;;;;;;9.48;5.40;;;11.90;99.90;;;;;;4915769;29;20044;-71
2023/03/30 00:43:55;;;;;;;10.93;6.00;;;11.90;99.90;;;;;;4915443;29;20028;-71
2023/03/30 00:46:22;;;;;;;8.68;5.43;;;11.90;99.90;;;;;;4914347;29;20051;-70
2023/03/30 00:48:47;;;;;;;10.48;5.43;;;11.90;99.90;;;;;;4915475;29;20120;-71
2023/03/30 00:51:14;;;;;;;10.30;5.15;;;11.90;99.90;;;;;;4915323;29;20107;-70
2023/03/30 00:53:43;;;;;;;9.25;5.45;;;11.90;99.90;;;;;;4914609;29;20050;-70
2023/03/30 00:56:12;;;;;;;9.15;4.88;;;11.80;99.90;;;;;;4915065;29;20036;-69
2023/03/30 00:58:40;;;;;;;12.55;5.40;;;11.80;99.90;;;;;;4914206;29;20369;-70
2023/03/30 01:01:09;;;;;;;9.48;5.68;;;11.80;99.90;;;;;;4914094;29;20028;-71
2023/03/30 01:03:46;;;;;;;11.02;5.30;;;11.70;99.90;;;;;;4915301;29;20028;-70
2023/03/30 01:06:16;;;;;;;9.52;5.07;;;11.70;99.90;;;;;;4915170;29;20035;-71
2023/03/30 01:08:43;;;;;;;7.45;4.70;;;11.70;99.90;;;;;;4914588;29;20364;-69
2023/03/30 01:11:10;;;;;;;11.83;4.80;;;11.70;99.90;;;;;;4914930;29;20040;-71
2023/03/30 01:13:44;;;;;;;10.80;4.90;;;11.70;99.90;;;;;;4932458;29;20418;-71
2023/03/30 01:16:34;;;;;;;9.18;4.93;;;11.70;99.90;;;;;;4933848;29;20032;-70
2023/03/30 01:19:28;;;;;;;10.30;4.78;;;11.70;99.90;;;;;;4933805;29;20044;-70
2023/03/30 01:21:59;;;;;;;13.25;5.32;;;11.70;99.90;;;;;;4933823;29;20040;-70
2023/03/30 01:24:48;;;;;;;10.10;4.80;;;11.70;99.90;;;;;;4933721;29;20449;-70
2023/03/30 01:27:45;;;;;;;7.10;4.22;;;11.80;99.90;;;;;;4933572;29;20110;-70
2023/03/30 01:30:44;;;;;;;13.75;4.18;;;11.80;99.90;;;;;;4934104;29;20329;-69
2023/03/30 01:33:28;;;;;;;9.48;5.00;;;11.80;99.90;;;;;;4933557;29;20071;-70
2023/03/30 01:35:59;;;;;;;11.57;4.78;;;11.90;99.90;;;;;;4941819;29;20047;-70
2023/03/30 01:38:43;;;;;;;8.15;3.95;;;11.80;99.90;;;;;;4952632;29;20392;-71
2023/03/30 01:41:21;;;;;;;9.65;4.13;;;11.80;99.90;;;;;;4952729;29;20461;-70
2023/03/30 01:43:59;;;;;;;6.90;4.20;;;11.80;99.90;;;;;;4952695;29;20043;-70
2023/03/30 01:46:32;;;;;;;7.90;4.03;;;11.80;99.90;;;;;;4952623;29;20034;-70
2023/03/30 01:49:14;;;;;;;8.63;3.97;;;11.90;99.90;;;;;;4952641;29;20144;-71
2023/03/30 01:51:47;;;;;;;9.70;4.15;;;11.90;99.90;;;;;;4952631;29;20273;-70
2023/03/30 01:54:23;;;;;;;6.13;3.63;;;11.80;99.90;;;;;;4952472;29;20031;-70
2023/03/30 01:57:17;;;;;;;7.93;3.38;;;11.90;99.90;;;;;;4953046;29;20074;-70
2023/03/30 01:59:55;;;;;;;7.80;3.97;;;11.90;99.90;;;;;;4950763;29;20050;-70
2023/03/30 02:02:24;;;;;;;10.55;4.22;;;11.80;99.90;;;;;;4952503;29;20468;-70
2023/03/30 02:04:52;;;;;;;6.60;3.53;;;11.90;99.90;;;;;;4952510;29;20028;-71
2023/03/30 02:07:23;;;;;;;6.10;3.67;;;11.90;99.90;;;;;;4935116;29;20063;-71
2023/03/30 02:09:52;;;;;;;7.93;4.00;;;11.90;99.90;;;;;;4952671;29;20375;-71
2023/03/30 02:12:19;;;;;;;6.47;3.70;;;11.80;99.90;;;;;;4952377;29;20105;-71
2023/03/30 02:14:47;;;;;;;7.17;3.20;;;11.80;99.90;;;;;;4952835;29;20031;-70
2023/03/30 02:17:32;;;;;;;9.73;3.67;;;11.80;99.90;;;;;;4952233;29;20058;-70
2023/03/30 02:19:58;;;;;;;6.03;3.20;;;11.80;99.90;;;;;;4952442;29;20031;-71
2023/03/30 02:22:26;;;;;;;8.52;3.70;;;11.80;99.90;;;;;;4952203;29;20046;-70
2023/03/30 02:24:57;;;;;;;11.05;3.28;;;11.80;99.90;;;;;;4952355;28;20035;-71
2023/03/30 02:27:24;;;;;;;8.38;3.30;;;11.90;99.90;;;;;;4952046;29;20111;-71
2023/03/30 02:29:50;;;;;;;5.43;3.38;;;11.90;99.90;;;;;;4952709;29;20031;-71
2023/03/30 02:32:51;;;;;;;5.25;3.47;;;11.90;99.90;;;;;;4952075;29;20118;-70
2023/03/30 02:35:35;;;;;;;8.02;3.67;;;11.90;99.90;;;;;;4947675;29;20039;-70
2023/03/30 02:38:32;;;;;;;9.45;3.00;;;11.80;99.90;;;;;;4951927;29;20027;-71
2023/03/30 02:41:39;;;;;;;10.02;3.50;;;11.80;99.90;;;;;;4951932;29;20035;-71
2023/03/30 02:44:35;;;;;;;10.23;3.90;;;11.80;99.90;;;;;;4874171;29;20049;-69
2023/03/30 02:47:09;;;;;;;7.40;3.42;;;11.90;99.90;;;;;;4874992;29;20041;-70
2023/03/30 02:50:14;;;;;;;12.55;3.78;;;11.80;99.90;;;;;;4934358;29;20028;-71
2023/03/30 02:53:11;;;;;;;5.22;3.08;;;11.80;99.90;;;;;;4955703;29;20071;-71
2023/03/30 02:55:52;;;;;;;4.63;2.97;;;11.90;99.90;;;;;;4955773;29;20105;-71
2023/03/30 02:58:32;;;;;;;9.32;3.30;;;11.90;99.90;;;;;;4938813;29;20062;-70
2023/03/30 03:01:03;;;;;;;11.98;3.22;;;11.90;99.90;;;;;;4938466;29;20042;-71
2023/03/30 03:03:40;;;;;;;3.85;2.85;;;11.90;99.90;;;;;;4955577;29;20211;-70
2023/03/30 03:06:08;;;;;;;9.45;3.30;;;12.00;99.90;;;;;;4956012;29;20085;-70
2023/03/30 03:08:41;;;;;;;6.18;3.00;;;12.00;99.90;;;;;;4955750;29;20047;-70
2023/03/30 03:11:08;;;;;;;10.13;3.30;;;12.10;99.90;;;;;;4955483;29;20031;-71
2023/03/30 03:13:35;;;;;;;6.35;3.83;;;12.10;99.90;;;;;;4955459;29;20035;-70
2023/03/30 03:16:03;;;;;;;6.80;3.65;;;12.10;99.90;;;;;;4938446;29;20461;-70
2023/03/30 03:18:29;;;;;;;11.98;3.13;;;12.10;99.90;;;;;;4955325;29;20114;-71
2023/03/30 03:20:56;;;;;;;7.18;3.42;;;12.20;99.90;;;;;;4938756;29;20038;-70
2023/03/30 03:23:21;;;;;;;12.60;3.45;;;12.20;99.90;;;;;;4954964;28;20118;-69
2023/03/30 03:25:47;;;;;;;5.35;2.47;;;12.20;99.90;;;;;;4938304;29;20445;-69
2023/03/30 03:28:13;;;;;;;7.65;3.30;;;12.10;99.90;;;;;;4955239;29;20342;-70
2023/03/30 03:30:39;;;;;;;6.70;3.30;;;12.20;99.90;;;;;;4955025;29;20043;-70
2023/03/30 03:33:05;;;;;;;7.72;2.80;;;12.20;99.90;;;;;;4955611;29;20114;-70
2023/03/30 03:35:31;;;;;;;5.80;3.50;;;12.30;99.90;;;;;;4955003;29;20046;-69
2023/03/30 03:37:56;;;;;;;8.10;2.95;;;12.30;99.90;;;;;;4955016;29;20035;-70
2023/03/30 03:40:22;;;;;;;6.78;2.80;;;12.30;99.90;;;;;;4937853;29;20040;-70
2023/03/30 03:42:48;;;;;;;6.38;3.25;;;12.30;99.90;;;;;;4954800;29;20031;-71
2023/03/30 03:45:14;;;;;;;4.90;3.10;;;12.30;99.90;;;;;;4954420;29;20130;-71
2023/03/30 03:47:40;;;;;;;9.05;2.95;;;12.40;99.90;;;;;;4955245;29;20050;-71
2023/03/30 03:50:08;;;;;;;5.25;2.78;;;12.40;99.90;;;;;;4937780;29;20028;-71
2023/03/30 03:52:35;;;;;;;5.88;2.78;;;12.40;99.90;;;;;;4954894;29;20067;-70
2023/03/30 03:55:04;;;;;;;7.10;2.97;;;12.40;99.90;;;;;;4937651;29;20436;-70
2023/03/30 03:57:30;;;;;;;10.25;3.00;;;12.50;99.90;;;;;;4937588;29;20035;-71
2023/03/30 03:59:58;;;;;;;7.82;2.90;;;12.50;99.90;;;;;;4954466;28;20031;-70
2023/03/30 04:02:25;;;;;;;3.55;2.75;;;12.50;99.90;;;;;;4954341;29;20333;-69
2023/03/30 04:04:52;;;;;;;5.88;2.78;;;12.50;99.90;;;;;;4954476;29;20077;-70
2023/03/30 04:07:18;;;;;;;6.15;2.85;;;12.50;99.90;;;;;;4954384;29;20071;-70
2023/03/30 04:09:44;;;;;;;5.45;3.00;;;12.50;99.90;;;;;;4954315;29;20042;-71
2023/03/30 04:12:09;;;;;;;6.68;2.72;;;12.60;99.90;;;;;;4954291;29;20031;-71
2023/03/30 04:14:35;;;;;;;10.25;2.83;;;12.60;99.90;;;;;;4954801;29;20174;-71
2023/03/30 04:17:01;;;;;;;7.25;2.97;;;12.60;99.90;;;;;;4937304;29;20028;-71
2023/03/30 04:19:30;;;;;;;6.40;3.20;;;12.60;99.90;;;;;;4954141;29;20107;-71
2023/03/30 04:21:57;;;;;;;6.53;2.80;;;12.60;99.90;;;;;;4954113;29;20109;-71
2023/03/30 04:24:26;;;;;;;6.20;2.90;;;12.70;99.90;;;;;;4954052;28;20416;-70
2023/03/30 04:26:52;;;;;;;6.97;2.58;;;12.70;99.90;;;;;;4954341;29;20027;-71
2023/03/30 04:29:19;;;;;;;3.85;2.63;;;12.60;99.90;;;;;;4954102;29;20035;-70
2023/03/30 04:31:49;;;;;;;6.43;2.47;;;12.70;99.90;;;;;;4953854;29;20078;-70
2023/03/30 04:34:20;;;;;;;5.68;2.80;;;12.70;99.90;;;;;;4936900;29;20476;-70
2023/03/30 04:36:49;;;;;;;9.25;2.72;;;12.70;99.90;;;;;;4936982;29;20035;-71
2023/03/30 04:39:17;;;;;;;4.80;2.67;;;12.70;99.90;;;;;;4953761;29;20019;-71
2023/03/30 04:41:44;;;;;;;6.60;2.85;;;12.70;99.90;;;;;;4937170;29;20031;-71
2023/03/30 04:44:11;;;;;;;6.93;2.92;;;12.70;99.90;;;;;;4953674;29;20045;-70
2023/03/30 04:46:37;;;;;;;5.63;2.85;;;12.80;99.90;;;;;;4953613;29;20028;-71
2023/03/30 04:49:03;;;;;;;5.32;2.42;;;12.70;99.90;;;;;;4936608;29;20039;-71
2023/03/30 04:51:29;;;;;;;7.80;3.33;;;12.80;99.90;;;;;;4953420;29;20488;-71
2023/03/30 04:53:55;;;;;;;5.75;2.90;;;12.80;99.90;;;;;;4953602;29;20035;-71
2023/03/30 04:56:21;;;;;;;6.13;3.03;;;12.80;99.90;;;;;;4953285;29;20035;-70
2023/03/30 04:58:47;;;;;;;7.75;3.20;;;12.80;99.90;;;;;;4953333;29;20031;-71
2023/03/30 05:01:12;;;;;;;8.65;3.13;;;12.80;99.90;;;;;;4953505;29;20122;-70
2023/03/30 05:03:38;;;;;;;8.23;2.50;;;12.80;99.90;;;;;;4953744;29;20355;-71
2023/03/30 05:06:05;;;;;;;11.48;2.75;;;12.80;99.90;;;;;;4953680;29;20046;-70
2023/03/30 05:08:32;;;;;;;4.45;2.47;;;12.90;99.90;;;;;;4953669;29;20039;-70
2023/03/30 05:11:03;;;;;;;7.00;3.00;;;12.90;99.90;;;;;;4953009;28;20054;-70
2023/03/30 05:13:30;;;;;;;6.93;2.83;;;13.00;99.90;;;;;;4953139;29;20437;-70
2023/03/30 05:15:56;;;;;;;10.07;2.95;;;13.00;99.90;;;;;;4953147;29;20039;-70
2023/03/30 05:18:22;;;;;;;7.07;2.53;;;13.00;99.90;;;;;;4936475;29;20445;-70
2023/03/30 05:20:48;;;;;;;7.53;2.60;;;13.00;99.90;;;;;;4953524;29;20027;-72
2023/03/30 05:23:14;;;;;;;7.25;3.33;;;13.00;99.90;;;;;;4953045;28;20046;-72
2023/03/30 05:25:47;;;;;;;7.38;2.80;;;13.10;99.90;;;;;;4952862;29;20039;-72
2023/03/30 05:28:13;;;;;;;9.73;2.95;;;13.00;99.90;;;;;;4952829;29;20035;-70
2023/03/30 05:30:39;;;;;;;16.95;3.33;;;13.10;99.90;;;;;;4952634;29;20097;-73
2023/03/30 05:33:08;;;;;;;5.00;2.03;;;13.00;99.90;;;;;;4953197;29;20373;-70
2023/03/30 05:35:35;;;;;;;7.32;3.00;;;13.10;99.90;;;;;;4952902;29;20031;-71
2023/03/30 05:38:00;;;;;;;4.35;2.30;;;13.10;99.90;;;;;;4952508;29;20043;-72
2023/03/30 05:40:26;;;;;;;5.47;2.88;;;13.10;99.90;;;;;;4952838;29;20027;-71
2023/03/30 05:42:52;;;;;;;5.75;2.53;;;13.20;99.90;;;;;;4952650;29;20177;-71
2023/03/30 05:45:17;;;;;;;10.32;2.80;;;13.20;99.90;;;;;;4952550;29;20458;-71
2023/03/30 05:47:43;;;;;;;12.90;3.72;;;13.20;99.90;;;;;;4953036;29;20031;-71
2023/03/30 05:50:10;;;;;;;4.47;2.25;;;13.30;99.90;;;;;;4952741;29;20048;-72
2023/03/30 05:52:36;;;;;;;7.95;2.40;;;13.30;99.90;;;;;;4935450;29;20236;-71
2023/03/30 05:55:01;;;;;;;7.03;2.78;;;13.30;99.90;;;;;;4952357;29;20468;-71
2023/03/30 05:57:27;;;;;;;7.32;2.30;;;13.40;99.90;;;;;;4952213;29;20035;-74
2023/03/30 05:59:53;;;;;;;6.32;2.63;;;13.40;99.90;;;;;;4952930;29;20031;-72
2023/03/30 06:02:19;;;;;;;7.10;2.33;;;13.50;99.90;;;;;;4952491;29;20283;-72
2023/03/30 06:04:45;;;;;;;9.27;2.65;;;13.50;99.90;;;;;;4951653;29;20043;-71
2023/03/30 06:07:10;;;;;;;5.13;2.33;;;13.70;99.90;;;;;;4952255;29;20333;-71
2023/03/30 06:09:36;;;;;;;9.27;2.72;;;13.70;99.90;;;;;;4952101;29;20034;-71
2023/03/30 06:12:03;;;;;;;9.95;2.17;;;13.70;99.70;;;;;;4952884;29;20396;-71
2023/03/30 06:14:28;;;;;;;8.18;2.40;;;13.70;99.50;;;;;;4951748;29;20058;-71
2023/03/30 06:16:54;;;;;;;4.78;2.13;;;13.80;99.70;;;;;;4951815;29;20035;-72
2023/03/30 06:19:20;;;;;;;4.35;1.90;;;13.90;99.50;;;;;;4952426;29;20429;-71
2023/03/30 06:21:46;;;;;;;10.52;2.20;;;13.90;99.30;;;;;;4952981;28;20042;-73
2023/03/30 06:24:12;;;;;;;9.07;2.00;;;14.00;99.20;;;;;;4958607;28;20027;-72
2023/03/30 06:26:37;;;;;;;8.65;2.35;;;14.10;99.00;;;;;;4956469;29;20031;-70
2023/03/30 06:29:03;;;;;;;4.97;2.17;;;14.10;98.90;;;;;;4956357;29;20480;-72
2023/03/30 06:31:29;;;;;;;8.77;2.35;;;14.20;99.00;;;;;;4955764;29;20055;-72
2023/03/30 06:33:55;;;;;;;6.00;2.10;;;14.30;98.90;;;;;;4938909;29;20126;-72
2023/03/30 06:36:20;;;;;;;9.60;2.10;;;14.40;98.90;;;;;;4923597;29;20033;-72
2023/03/30 06:38:47;;;;;;;11.43;2.03;;;14.60;98.70;;;;;;4939302;29;20062;-72
2023/03/30 06:41:14;;;;;;;6.47;2.33;;;14.50;98.50;;;;;;4939111;29;20413;-72
2023/03/30 06:43:39;;;;;;;9.38;3.88;;;14.60;98.40;;;;;;4955435;29;20031;-72
2023/03/30 06:46:06;;;;;;;6.68;2.50;;;14.70;98.40;;;;;;4955514;29;20130;-71
2023/03/30 06:48:31;;;;;;;5.50;2.40;;;14.70;98.20;;;;;;4938713;29;20070;-73
2023/03/30 06:50:58;;;;;;;7.25;2.33;;;14.70;98.20;;;;;;4956147;29;20046;-72
2023/03/30 06:53:24;;;;;;;8.70;3.05;;;14.90;98.30;;;;;;4955399;29;20049;-72
2023/03/30 06:55:57;;;;;;;4.32;2.20;;;14.90;98.00;;;;;;4955665;29;20369;-71
2023/03/30 06:58:26;;;;;;;2.92;1.63;;;14.90;97.90;;;;;;4938473;29;20476;-72
2023/03/30 07:00:52;;;;;;;7.93;2.85;;;14.90;97.70;;;;;;4938316;29;20043;-71
2023/03/30 07:03:18;;;;;;;11.32;2.85;;;14.90;97.70;;;;;;4955368;29;20039;-72
2023/03/30 07:05:51;;;;;;;4.03;1.80;;;14.90;97.70;;;;;;4955781;29;20019;-73
2023/03/30 07:08:18;;;;;;;9.43;2.15;;;15.00;97.70;;;;;;4937974;29;20476;-74
2023/03/30 07:10:46;;;;;;;5.93;2.38;;;15.00;97.70;;;;;;4955173;29;20027;-73
2023/03/30 07:13:12;;;;;;;13.32;2.88;;;15.10;97.70;;;;;;4955155;29;20058;-72
2023/03/30 07:15:37;;;;;;;5.57;2.05;;;15.10;97.50;;;;;;4955358;29;20058;-72
2023/03/30 07:18:03;;;;;;;9.05;2.42;;;15.20;97.70;;;;;;4955569;29;20035;-72
2023/03/30 07:20:29;;;;;;;6.25;2.20;;;15.20;97.40;;;;;;4955318;29;20037;-69
2023/03/30 07:22:55;;;;;;;6.15;2.60;;;15.10;97.20;;;;;;4954818;28;20058;-69
2023/03/30 07:25:20;;;;;;;7.05;2.03;;;15.20;97.30;;;;;;4938106;29;20085;-71
2023/03/30 07:27:46;;;;;;;7.10;2.03;;;15.30;97.40;;;;;;4937881;29;20028;-70
2023/03/30 07:30:13;;;;;;;6.72;2.20;;;15.30;97.30;;;;;;4954924;29;20057;-71
2023/03/30 07:32:39;;;;;;;6.95;2.28;;;15.40;97.20;;;;;;4938470;28;20051;-70
2023/03/30 07:35:05;;;;;;;3.88;1.80;;;15.40;97.20;;;;;;4936673;29;20051;-70
2023/03/30 07:37:31;;;;;;;15.40;2.35;;;15.40;97.20;;;;;;4954928;29;20051;-71
2023/03/30 07:39:57;;;;;;;9.30;2.75;;;15.40;96.90;;;;;;4954654;29;20662;-71
2023/03/30 07:42:23;;;;;;;4.65;1.83;;;15.50;97.10;;;;;;4955592;29;20050;-71
2023/03/30 07:44:49;;;;;;;11.82;2.22;;;15.60;97.10;;;;;;4938104;29;20441;-70
2023/03/30 07:47:15;;;;;;;8.80;2.20;;;15.70;97.20;;;;;;4937453;29;20163;-70
2023/03/30 07:49:41;;;;;;;6.45;2.00;;;15.70;97.00;;;;;;4954546;29;20039;-71
2023/03/30 07:52:07;;;;;;;8.00;2.35;;;15.80;97.10;;;;;;4954726;29;20035;-70
2023/03/30 07:54:32;;;;;;;8.57;2.03;;;15.80;96.90;;;;;;4937608;29;20384;-70
2023/03/30 07:56:58;;;;;;;8.95;2.22;;;15.80;96.60;;;;;;4938419;29;20027;-70
2023/03/30 07:59:24;;;;;;;9.40;2.40;;;15.80;96.70;;;;;;4954369;29;20114;-69
2023/03/30 08:01:50;;;;;;;7.95;1.90;;;15.90;96.60;;;;;;4954230;29;20516;-71
2023/03/30 08:04:17;;;;;;;5.30;1.92;;;15.90;96.50;;;;;;4937426;29;20039;-71
2023/03/30 08:06:43;;;;;;;7.68;2.00;;;16.00;96.30;;;;;;4954427;29;20035;-71
2023/03/30 08:09:09;;;;;;;10.48;2.33;;;16.10;96.30;;;;;;4954797;29;20031;-70
2023/03/30 08:11:35;;;;;;;9.80;2.00;;;16.20;96.10;;;;;;4938300;29;20095;-70
2023/03/30 08:14:03;;;;;;;10.25;1.98;;;16.20;96.00;;;;;;4916306;29;20414;-71
2023/03/30 08:16:29;;;;;;;6.80;1.77;;;16.30;96.10;;;;;;4916051;29;20139;-72
2023/03/30 08:18:55;;;;;;;5.45;1.83;;;16.40;95.80;;;;;;4915840;29;20052;-72
2023/03/30 08:21:24;;;;;;;5.72;1.58;;;16.40;95.50;;;;;;4915805;29;20126;-70
2023/03/30 08:23:57;;;;;;;3.45;1.50;;;16.40;95.60;;;;;;4899627;29;20028;-71
2023/03/30 08:26:25;;;;;;;9.73;1.70;;;16.50;95.50;;;;;;4915947;29;20044;-70
2023/03/30 08:28:51;;;;;;;7.77;2.83;;;16.50;95.50;;;;;;4915687;29;20036;-71
2023/03/30 08:31:17;;;;;;;8.82;1.92;;;16.60;95.40;;;;;;4915717;29;20056;-72
2023/03/30 08:33:43;;;;;;;7.30;1.73;;;16.60;95.40;;;;;;4915499;29;20130;-70
2023/03/30 08:36:11;;;;;;;7.60;1.95;;;16.60;95.30;;;;;;4914868;29;20028;-71
2023/03/30 08:38:38;;;;;;;7.22;1.83;;;16.60;95.20;;;;;;4915908;29;20064;-71
2023/03/30 08:41:23;;;;;;;11.15;1.92;;;16.60;95.40;;;;;;4898641;29;20280;-71
2023/03/30 08:44:01;;;;;;;9.63;4.20;;;16.70;95.40;;;;;;4915561;29;20138;-72
2023/03/30 08:46:29;;;;;;;10.18;2.55;;;16.80;95.50;;;;;;4915258;29;20032;-71
2023/03/30 08:48:59;;;;;;;7.50;2.00;;;16.80;95.40;;;;;;4914356;29;20047;-72
2023/03/30 08:51:30;;;;;;;4.75;1.73;;;17.00;95.40;;;;;;4915396;29;20065;-73
2023/03/30 08:54:00;;;;;;;9.57;2.42;;;17.10;95.20;;;;;;4916184;29;20052;-71
2023/03/30 08:56:38;;;;;;;10.95;2.20;;;17.20;95.70;;;;;;4915692;29;20470;-71
2023/03/30 08:59:16;;;;;;;6.53;2.00;;;17.10;96.10;;;;;;4915296;29;20032;-71
2023/03/30 09:01:48;;;;;;;4.43;1.63;;;17.00;96.00;;;;;;4914226;29;20482;-70
2023/03/30 09:04:43;;;;;;;8.15;2.00;;;17.00;96.00;;;;;;4915191;29;20415;-71
2023/03/30 09:07:27;;;;;;;6.47;1.88;;;17.00;95.80;;;;;;4914075;29;20043;-72
2023/03/30 09:09:55;;;;;;;6.78;1.88;;;17.20;96.00;;;;;;4915286;29;20047;-71
2023/03/30 09:12:44;;;;;;;9.38;2.60;;;17.50;95.70;;;;;;4915146;29;20058;-70
2023/03/30 09:15:25;;;;;;;11.45;2.47;;;17.60;95.20;;;;;;4914873;29;20052;-70
2023/03/30 09:18:01;;;;;;;5.88;2.03;;;18.10;95.20;;;;;;4898662;29;20139;-72
2023/03/30 09:20:29;;;;;;;10.38;2.70;;;19.10;93.60;;;;;;4915013;29;20032;-72
2023/03/30 09:22:59;;;;;;;9.55;2.58;;;19.70;93.80;;;;;;4897932;29;20298;-72
2023/03/30 09:25:28;;;;;;;8.55;2.03;;;19.80;92.60;;;;;;4913914;29;20043;-71
2023/03/30 09:27:57;;;;;;;9.25;2.08;;;19.90;92.80;;;;;;4914992;29;20059;-71
2023/03/30 09:30:30;;;;;;;5.05;1.80;;;20.40;92.70;;;;;;4914833;29;20470;-69
2023/03/30 09:33:06;;;;;;;4.75;1.80;;;20.40;91.70;;;;;;4914097;29;20130;-70
2023/03/30 09:35:46;;;;;;;5.40;2.28;;;19.70;91.90;;;;;;4914754;29;20051;-69
2023/03/30 09:38:12;;;;;;;11.02;2.53;;;19.70;92.00;;;;;;4913460;29;20034;-69
2023/03/30 09:41:06;;;;;;;8.48;1.80;;;19.60;92.20;;;;;;4914470;29;20127;-70
2023/03/30 09:43:44;;;;;;;9.38;2.20;;;19.10;92.20;;;;;;4914270;29;20032;-70
2023/03/30 09:46:11;;;;;;;8.57;2.25;;;18.70;93.20;;;;;;4914430;29;20046;-71
2023/03/30 09:48:42;;;;;;;7.90;1.92;;;18.50;93.50;;;;;;4914050;29;20032;-71
2023/03/30 09:51:21;;;;;;;13.05;2.28;;;18.20;94.70;;;;;;4914857;29;20111;-69
2023/03/30 09:53:51;;;;;;;6.47;2.53;;;17.80;95.50;;;;;;4914311;29;20043;-72
2023/03/30 09:56:27;;;;;;;7.43;2.10;;;17.90;95.60;;;;;;4913677;29;20041;-71
2023/03/30 09:58:53;;;;;;;5.82;2.17;;;17.60;96.30;;;;;;4913980;29;20040;-70
2023/03/30 10:01:33;;;;;;;10.75;3.55;;;17.20;98.10;;;;;;4914036;29;20245;-71
2023/03/30 10:04:11;;;;;;;10.70;2.72;;;17.10;98.70;;;;;;4897138;29;20044;-72
2023/03/30 10:06:48;;;;;;;9.35;2.50;;;17.20;98.70;;;;;;4897177;29;20463;-70
2023/03/30 10:09:19;;;;;;;5.93;2.60;;;17.10;98.60;;;;;;4914031;29;20036;-71
2023/03/30 10:11:49;;;;;;;9.27;2.53;;;17.00;98.90;;;;;;4914838;29;20053;-70
2023/03/30 10:14:32;;;;;;;13.48;3.30;;;17.00;99.10;;;;;;4913996;29;20344;-70
2023/03/30 10:16:59;;;;;;;14.95;3.30;;;17.00;99.30;;;;;;4914240;29;20143;-70
2023/03/30 10:19:25;;;;;;;15.07;3.58;;;17.00;99.70;;;;;;4913796;29;20363;-70
2023/03/30 10:22:03;;;;;;;14.32;3.38;;;17.30;99.30;;;;;;4913880;29;20340;-70
2023/03/30 10:24:30;;;;;;;10.90;2.85;;;17.20;99.30;;;;;;4912726;29;20359;-70
2023/03/30 10:27:10;;;;;;;4.70;2.40;;;17.40;98.90;;;;;;4897711;29;20028;-70
2023/03/30 10:29:35;;;;;;;8.50;2.85;;;17.40;98.80;;;;;;4914016;29;20054;-71
2023/03/30 10:32:09;;;;;;;7.38;2.67;;;17.30;98.60;;;;;;4912712;29;20060;-73
2023/03/30 10:34:42;;;;;;;7.38;2.25;;;17.00;98.40;;;;;;4914156;29;20394;-69
2023/03/30 10:37:49;;;;;;;10.02;2.65;;;17.40;98.40;;;;;;4914043;29;20051;-71
2023/03/30 10:40:26;;;;;;;5.43;1.77;;;17.30;98.20;;;;;;4913929;29;20096;-67
2023/03/30 10:42:55;;;;;;;8.32;2.40;;;17.30;97.70;;;;;;4881806;29;20282;-70
2023/03/30 10:45:45;;;;;;;7.30;1.90;;;16.90;98.50;;;;;;4913906;29;20028;-70
2023/03/30 10:48:41;;;;;;;5.47;2.30;;;16.30;99.90;;;;;;4897849;29;20105;-68
2023/03/30 10:51:34;;;;;;;6.00;1.25;;;16.10;99.90;;;;;;4914261;29;20080;-71
2023/03/30 10:54:21;;;;;;;3.55;1.40;;;15.70;99.90;;;;;;4913941;29;20044;-72
2023/03/30 10:57:17;;;;;;;4.38;1.30;;;15.60;99.90;;;;;;4913115;29;20040;-70
2023/03/30 11:00:09;;;;;;;2.60;0.90;;;15.50;99.90;;;;;;4898428;29;20040;-69
2023/03/30 11:02:45;;;;;;;3.42;1.33;;;15.40;99.90;;;;;;4896665;29;20040;-69
2023/03/30 11:05:39;;;;;;;9.55;1.60;;;15.40;99.90;;;;;;4897042;29;20099;-70
2023/03/30 11:08:25;;;;;;;5.18;1.02;;;15.40;99.90;;;;;;4911577;29;20024;-71
2023/03/30 11:10:55;;;;;;;3.35;0.93;;;15.60;99.90;;;;;;4917238;29;20684;-71
2023/03/30 11:13:30;;;;;;;3.42;0.93;;;15.40;99.90;;;;;;4917088;29;20032;-70
2023/03/30 11:16:01;;;;;;;9.30;3.67;;;15.20;99.90;;;;;;4917259;29;20032;-71
2023/03/30 11:18:52;;;;;;;7.93;1.77;;;15.20;99.90;;;;;;4917127;29;20459;-72
2023/03/30 11:21:36;;;;;;;10.52;3.75;;;15.50;99.90;;;;;;4916018;29;20032;-71
2023/03/30 11:24:22;;;;;;;7.68;2.00;;;16.30;99.90;;;;;;4917325;29;20171;-72
2023/03/30 11:27:09;;;;;;;7.57;2.10;;;17.20;99.60;;;;;;4917189;29;20051;-71
2023/03/30 11:29:58;;;;;;;5.80;1.50;;;18.10;98.10;;;;;;4916982;29;20127;-70
2023/03/30 11:32:43;;;;;;;5.72;1.50;;;18.30;97.30;;;;;;4900227;29;20291;-70
2023/03/30 11:35:09;;;;;;;4.20;1.30;;;18.70;96.90;;;;;;4916791;29;20036;-71
2023/03/30 11:37:41;;;;;;;5.97;1.48;;;19.60;95.90;;;;;;4915884;29;20414;-70
2023/03/30 11:40:17;;;;;;;7.18;1.75;;;19.50;95.10;;;;;;4916594;29;20060;-70
2023/03/30 11:42:44;;;;;;;7.18;2.30;;;19.40;94.60;;;;;;4916178;29;20253;-69
2023/03/30 11:45:36;;;;;;;7.03;2.20;;;19.60;94.90;;;;;;4917159;29;20035;-72
2023/03/30 11:48:30;;;;;;;5.93;1.65;;;18.90;94.20;;;;;;4917479;29;20075;-70
2023/03/30 11:51:14;;;;;;;10.57;1.90;;;18.60;95.00;;;;;;4916508;29;20040;-71
2023/03/30 11:53:52;;;;;;;7.00;1.90;;;18.70;95.30;;;;;;4916892;29;20051;-72
2023/03/30 11:56:20;;;;;;;7.32;2.08;;;18.80;94.60;;;;;;4916365;29;20819;-72
2023/03/30 11:59:24;;;;;;;7.32;1.98;;;18.80;94.20;;;;;;4916359;29;20043;-71
2023/03/30 12:02:27;;;;;;;7.57;2.08;;;18.60;94.00;;;;;;4899094;29;20424;-70
2023/03/30 12:05:13;;;;;;;9.25;2.78;;;18.70;94.60;;;;;;4916453;29;20046;-70
2023/03/30 12:07:42;;;;;;;9.95;2.45;;;18.50;94.10;;;;;;4899118;29;20042;-70
2023/03/30 12:10:34;;;;;;;8.48;1.75;;;18.30;93.60;;;;;;4916396;29;20576;-72
2023/03/30 12:13:01;;;;;;;9.50;2.22;;;18.10;93.90;;;;;;4905956;29;20075;-71
2023/03/30 12:15:52;;;;;;;4.85;1.65;;;17.80;93.70;;;;;;4915969;29;20024;-71
2023/03/30 12:18:30;;;;;;;11.00;2.20;;;17.70;93.70;;;;;;4915890;29;20055;-71
2023/03/30 12:21:22;;;;;;;5.75;1.30;;;17.80;93.80;;;;;;4915796;29;20035;-72
2023/03/30 12:24:05;;;;;;;9.27;1.92;;;17.90;94.00;;;;;;4916290;29;20482;-71
2023/03/30 12:26:33;;;;;;;9.35;2.17;;;17.70;94.10;;;;;;4915681;29;20132;-71
2023/03/30 12:29:15;;;;;;;5.07;1.48;;;17.80;94.10;;;;;;4914522;29;20040;-70
2023/03/30 12:32:01;;;;;;;10.70;1.67;;;18.00;93.80;;;;;;4914642;29;20060;-72
2023/03/30 12:34:39;;;;;;;7.40;1.70;;;18.10;93.70;;;;;;4915588;29;20037;-72
2023/03/30 12:37:13;;;;;;;;;;;18.10;93.60;;;;;;4915044;29;20050;-72
2023/03/30 12:39:54;;;;;;;12.90;1.90;;;18.10;93.30;;;;;;4914489;29;19912;-73
2023/03/30 12:42:27;;;;;;;6.18;1.60;;;18.30;93.10;;;;;;4914871;29;20036;-71
2023/03/30 12:45:01;;;;;;;6.65;1.50;;;18.20;93.30;;;;;;4916384;29;20028;-72
2023/03/30 12:47:49;;;;;;;8.70;2.25;;;18.00;93.30;;;;;;4915513;29;20028;-71
2023/03/30 12:50:44;;;;;;;4.75;1.42;;;18.20;93.60;;;;;;4914165;29;20111;-70
2023/03/30 12:53:39;;;;;;;8.20;1.98;;;18.40;92.90;;;;;;4915219;29;20098;-70
2023/03/30 12:56:13;;;;;;;5.95;0.88;;;18.50;92.50;;;;;;4915131;29;20040;-71
2023/03/30 12:58:51;;;;;;;5.47;1.15;;;18.40;91.50;;;;;;4915308;29;20036;-71
2023/03/30 13:01:38;;;;;;;5.47;1.17;;;18.00;91.20;;;;;;4915042;29;20363;-70
2023/03/30 13:04:25;;;;;;;7.18;1.27;;;18.00;90.90;;;;;;4898057;29;20036;-71
2023/03/30 13:07:01;;;;;;;8.27;1.27;;;17.70;90.50;;;;;;4914675;29;20032;-71
2023/03/30 13:09:30;;;;;;;10.73;1.20;;;17.60;90.70;;;;;;4913799;29;20020;-71
2023/03/30 13:11:59;;;;;;;7.20;1.20;;;17.20;90.90;;;;;;4915189;29;20383;-71
2023/03/30 13:14:26;;;;;;;7.93;0.95;;;16.90;92.10;;;;;;4914974;29;20036;-71